sensor_id;sensor_type;location;lat;lon;timestamp;pressure;altitude;pressure_sealevel;temperature
19948;BMP180;10135;50.702;7.276;2023-08-01T05:02:13;97873.00;;;20.60
19948;BMP180;10135;50.702;7.276;2023-08-01T05:04:14;97880.00;;;20.60
19948;BMP180;10135;50.702;7.276;2023-08-01T05:06:15;97885.00;;;20.60
19948;BMP180;10135;50.702;7.276;2023-08-01T05:08:16;97886.00;;;20.60
19948;BMP180;10135;50.702;7.276;2023-08-01T05:10:16;97878.00;;;20.60
19948;BMP180;10135;50.702;7.276;2023-08-01T05:12:17;97889.00;;;20.60
19948;BMP180;10135;50.702;7.276;2023-08-01T05:14:17;97891.00;;;20.60
19948;BMP180;10135;50.702;7.276;2023-08-01T05:16:18;97886.00;;;20.60
19948;BMP180;10135;50.702;7.276;2023-08-01T05:18:19;97897.00;;;20.60
19948;BMP180;10135;50.702;7.276;2023-08-01T05:20:19;97900.00;;;20.60
19948;BMP180;10135;50.702;7.276;2023-08-01T05:22:20;97898.00;;;20.60
19948;BMP180;10135;50.702;7.276;2023-08-01T05:24:21;97900.00;;;20.60
19948;BMP180;10135;50.702;7.276;2023-08-01T05:26:22;97911.00;;;20.50
19948;BMP180;10135;50.702;7.276;2023-08-01T05:28:22;97894.00;;;20.50
19948;BMP180;10135;50.702;7.276;2023-08-01T05:30:24;97896.00;;;20.50
19948;BMP180;10135;50.702;7.276;2023-08-01T05:32:25;97895.00;;;20.50
19948;BMP180;10135;50.702;7.276;2023-08-01T05:34:26;97896.00;;;20.50
19948;BMP180;10135;50.702;7.276;2023-08-01T05:36:26;97897.00;;;20.40
19948;BMP180;10135;50.702;7.276;2023-08-01T05:38:27;97901.00;;;20.40
19948;BMP180;10135;50.702;7.276;2023-08-01T05:40:28;97885.00;;;20.40
19948;BMP180;10135;50.702;7.276;2023-08-01T05:42:28;97891.00;;;20.40
19948;BMP180;10135;50.702;7.276;2023-08-01T05:44:29;97889.00;;;20.40
19948;BMP180;10135;50.702;7.276;2023-08-01T05:46:29;97888.00;;;20.40
19948;BMP180;10135;50.702;7.276;2023-08-01T05:48:30;97887.00;;;20.40
19948;BMP180;10135;50.702;7.276;2023-08-01T05:50:31;97888.00;;;20.50
19948;BMP180;10135;50.702;7.276;2023-08-01T05:52:33;97884.00;;;20.50
19948;BMP180;10135;50.702;7.276;2023-08-01T05:54:33;97885.00;;;20.50
19948;BMP180;10135;50.702;7.276;2023-08-01T05:56:34;97896.00;;;20.50
19948;BMP180;10135;50.702;7.276;2023-08-01T05:58:35;97894.00;;;20.50
19948;BMP180;10135;50.702;7.276;2023-08-01T06:00:35;97890.00;;;20.60
19948;BMP180;10135;50.702;7.276;2023-08-01T06:02:36;97890.00;;;20.60
19948;BMP180;10135;50.702;7.276;2023-08-01T06:04:37;97887.00;;;20.60
19948;BMP180;10135;50.702;7.276;2023-08-01T06:06:39;97883.00;;;20.60
19948;BMP180;10135;50.702;7.276;2023-08-01T06:08:39;97883.00;;;20.60
19948;BMP180;10135;50.702;7.276;2023-08-01T06:10:40;97897.00;;;20.60
19948;BMP180;10135;50.702;7.276;2023-08-01T06:12:41;97899.00;;;20.70
19948;BMP180;10135;50.702;7.276;2023-08-01T06:14:42;97903.00;;;20.70
19948;BMP180;10135;50.702;7.276;2023-08-01T06:16:42;97902.00;;;20.80
19948;BMP180;10135;50.702;7.276;2023-08-01T06:18:43;97908.00;;;20.80
19948;BMP180;10135;50.702;7.276;2023-08-01T06:20:44;97914.00;;;20.90
19948;BMP180;10135;50.702;7.276;2023-08-01T06:22:44;97911.00;;;20.90
19948;BMP180;10135;50.702;7.276;2023-08-01T06:24:45;97910.00;;;21.00
19948;BMP180;10135;50.702;7.276;2023-08-01T06:26:45;97917.00;;;21.00
19948;BMP180;10135;50.702;7.276;2023-08-01T06:28:46;97909.00;;;21.10
19948;BMP180;10135;50.702;7.276;2023-08-01T06:30:47;97909.00;;;21.10
19948;BMP180;10135;50.702;7.276;2023-08-01T06:32:47;97917.00;;;21.20
19948;BMP180;10135;50.702;7.276;2023-08-01T06:34:48;97915.00;;;21.20
19948;BMP180;10135;50.702;7.276;2023-08-01T06:36:49;97911.00;;;21.30
19948;BMP180;10135;50.702;7.276;2023-08-01T06:38:50;97913.00;;;21.40
19948;BMP180;10135;50.702;7.276;2023-08-01T06:40:50;97909.00;;;21.40
19948;BMP180;10135;50.702;7.276;2023-08-01T06:42:51;97914.00;;;21.40
19948;BMP180;10135;50.702;7.276;2023-08-01T06:44:51;97916.00;;;21.50
19948;BMP180;10135;50.702;7.276;2023-08-01T06:46:52;97924.00;;;21.50
19948;BMP180;10135;50.702;7.276;2023-08-01T06:48:53;97923.00;;;21.50
19948;BMP180;10135;50.702;7.276;2023-08-01T06:50:53;97927.00;;;21.50
19948;BMP180;10135;50.702;7.276;2023-08-01T06:52:54;97927.00;;;21.50
19948;BMP180;10135;50.702;7.276;2023-08-01T06:54:55;97925.00;;;21.50
19948;BMP180;10135;50.702;7.276;2023-08-01T06:56:55;97927.00;;;21.50
19948;BMP180;10135;50.702;7.276;2023-08-01T06:58:56;97929.00;;;21.50
19948;BMP180;10135;50.702;7.276;2023-08-01T07:00:57;97919.00;;;21.50
19948;BMP180;10135;50.702;7.276;2023-08-01T07:02:58;97919.00;;;21.50
19948;BMP180;10135;50.702;7.276;2023-08-01T07:04:58;97920.00;;;21.60
19948;BMP180;10135;50.702;7.276;2023-08-01T07:06:59;97916.00;;;21.60
19948;BMP180;10135;50.702;7.276;2023-08-01T07:09:00;97917.00;;;21.60
19948;BMP180;10135;50.702;7.276;2023-08-01T07:11:00;97920.00;;;21.60
19948;BMP180;10135;50.702;7.276;2023-08-01T07:13:02;97914.00;;;21.60
19948;BMP180;10135;50.702;7.276;2023-08-01T07:15:05;97915.00;;;21.60
19948;BMP180;10135;50.702;7.276;2023-08-01T07:17:06;97917.00;;;21.70
19948;BMP180;10135;50.702;7.276;2023-08-01T07:19:06;97916.00;;;21.70
19948;BMP180;10135;50.702;7.276;2023-08-01T07:21:07;97918.00;;;21.70
19948;BMP180;10135;50.702;7.276;2023-08-01T07:23:08;97923.00;;;21.70
19948;BMP180;10135;50.702;7.276;2023-08-01T07:25:09;97923.00;;;21.70
19948;BMP180;10135;50.702;7.276;2023-08-01T07:27:09;97929.00;;;21.70
19948;BMP180;10135;50.702;7.276;2023-08-01T07:29:10;97942.00;;;21.80
19948;BMP180;10135;50.702;7.276;2023-08-01T07:31:11;97941.00;;;21.80
19948;BMP180;10135;50.702;7.276;2023-08-01T07:33:12;97937.00;;;21.80
19948;BMP180;10135;50.702;7.276;2023-08-01T07:35:13;97940.00;;;21.80
19948;BMP180;10135;50.702;7.276;2023-08-01T07:37:14;97940.00;;;21.80
19948;BMP180;10135;50.702;7.276;2023-08-01T07:39:16;97948.00;;;21.80
19948;BMP180;10135;50.702;7.276;2023-08-01T07:41:16;97946.00;;;21.70
19948;BMP180;10135;50.702;7.276;2023-08-01T07:43:17;97958.00;;;21.70
19948;BMP180;10135;50.702;7.276;2023-08-01T07:45:18;97953.00;;;21.70
19948;BMP180;10135;50.702;7.276;2023-08-01T07:47:19;97958.00;;;21.70
19948;BMP180;10135;50.702;7.276;2023-08-01T07:49:20;97959.00;;;21.70
19948;BMP180;10135;50.702;7.276;2023-08-01T07:51:21;97965.00;;;21.60
19948;BMP180;10135;50.702;7.276;2023-08-01T07:53:21;97969.00;;;21.60
19948;BMP180;10135;50.702;7.276;2023-08-01T07:55:22;97974.00;;;21.60
19948;BMP180;10135;50.702;7.276;2023-08-01T07:57:23;97964.00;;;21.50
19948;BMP180;10135;50.702;7.276;2023-08-01T07:59:23;97973.00;;;21.50
19948;BMP180;10135;50.702;7.276;2023-08-01T08:01:24;97970.00;;;21.60
19948;BMP180;10135;50.702;7.276;2023-08-01T08:03:24;97970.00;;;21.60
19948;BMP180;10135;50.702;7.276;2023-08-01T08:05:25;97975.00;;;21.60
19948;BMP180;10135;50.702;7.276;2023-08-01T08:07:26;97983.00;;;21.60
19948;BMP180;10135;50.702;7.276;2023-08-01T08:09:26;97979.00;;;21.70
19948;BMP180;10135;50.702;7.276;2023-08-01T08:11:27;97978.00;;;21.70
19948;BMP180;10135;50.702;7.276;2023-08-01T08:13:28;97977.00;;;21.70
19948;BMP180;10135;50.702;7.276;2023-08-01T08:15:29;97974.00;;;21.80
19948;BMP180;10135;50.702;7.276;2023-08-01T08:17:33;97978.00;;;21.90
19948;BMP180;10135;50.702;7.276;2023-08-01T08:19:34;97977.00;;;22.00
19948;BMP180;10135;50.702;7.276;2023-08-01T08:21:35;97973.00;;;22.30
19948;BMP180;10135;50.702;7.276;2023-08-01T08:23:35;97970.00;;;22.50
19948;BMP180;10135;50.702;7.276;2023-08-01T08:25:36;97977.00;;;22.60
19948;BMP180;10135;50.702;7.276;2023-08-01T08:27:37;97971.00;;;22.70
19948;BMP180;10135;50.702;7.276;2023-08-01T08:29:38;97975.00;;;22.70
19948;BMP180;10135;50.702;7.276;2023-08-01T08:31:38;97974.00;;;22.70
19948;BMP180;10135;50.702;7.276;2023-08-01T08:33:39;97971.00;;;22.70
19948;BMP180;10135;50.702;7.276;2023-08-01T08:35:40;97965.00;;;22.70
19948;BMP180;10135;50.702;7.276;2023-08-01T08:37:40;97961.00;;;22.70
19948;BMP180;10135;50.702;7.276;2023-08-01T08:39:41;97968.00;;;22.70
19948;BMP180;10135;50.702;7.276;2023-08-01T08:41:51;97973.00;;;22.70
19948;BMP180;10135;50.702;7.276;2023-08-01T08:43:56;97973.00;;;22.70
19948;BMP180;10135;50.702;7.276;2023-08-01T08:46:03;97972.00;;;22.70
19948;BMP180;10135;50.702;7.276;2023-08-01T08:48:13;97985.00;;;22.70
19948;BMP180;10135;50.702;7.276;2023-08-01T08:50:18;97979.00;;;22.60
19948;BMP180;10135;50.702;7.276;2023-08-01T08:52:20;97986.00;;;22.60
19948;BMP180;10135;50.702;7.276;2023-08-01T08:54:21;97979.00;;;22.60
19948;BMP180;10135;50.702;7.276;2023-08-01T08:56:23;97982.00;;;22.60
19948;BMP180;10135;50.702;7.276;2023-08-01T08:58:24;97979.00;;;22.50
19948;BMP180;10135;50.702;7.276;2023-08-01T09:00:25;97982.00;;;22.50
19948;BMP180;10135;50.702;7.276;2023-08-01T09:02:28;97983.00;;;22.50
19948;BMP180;10135;50.702;7.276;2023-08-01T09:04:32;97986.00;;;22.50
19948;BMP180;10135;50.702;7.276;2023-08-01T09:06:49;97984.00;;;22.40
19948;BMP180;10135;50.702;7.276;2023-08-01T09:09:07;97983.00;;;22.50
19948;BMP180;10135;50.702;7.276;2023-08-01T09:11:09;97985.00;;;22.50
19948;BMP180;10135;50.702;7.276;2023-08-01T09:13:10;97997.00;;;22.50
19948;BMP180;10135;50.702;7.276;2023-08-01T09:15:11;97997.00;;;22.50
19948;BMP180;10135;50.702;7.276;2023-08-01T09:17:13;97994.00;;;22.50
19948;BMP180;10135;50.702;7.276;2023-08-01T09:19:21;97999.00;;;22.50
19948;BMP180;10135;50.702;7.276;2023-08-01T09:21:24;98002.00;;;22.50
19948;BMP180;10135;50.702;7.276;2023-08-01T09:23:25;98006.00;;;22.50
19948;BMP180;10135;50.702;7.276;2023-08-01T09:25:32;98001.00;;;22.50
19948;BMP180;10135;50.702;7.276;2023-08-01T09:27:35;98002.00;;;22.50
19948;BMP180;10135;50.702;7.276;2023-08-01T09:29:36;97991.00;;;22.50
19948;BMP180;10135;50.702;7.276;2023-08-01T09:31:41;97992.00;;;22.50
19948;BMP180;10135;50.702;7.276;2023-08-01T09:33:42;98000.00;;;22.50
19948;BMP180;10135;50.702;7.276;2023-08-01T09:35:43;97996.00;;;22.50
19948;BMP180;10135;50.702;7.276;2023-08-01T09:37:47;97993.00;;;22.50
19948;BMP180;10135;50.702;7.276;2023-08-01T09:39:54;98000.00;;;22.50
19948;BMP180;10135;50.702;7.276;2023-08-01T09:42:01;98009.00;;;22.60
19948;BMP180;10135;50.702;7.276;2023-08-01T09:44:02;98001.00;;;22.60
19948;BMP180;10135;50.702;7.276;2023-08-01T09:46:06;98000.00;;;22.70
19948;BMP180;10135;50.702;7.276;2023-08-01T09:48:07;98011.00;;;22.70
19948;BMP180;10135;50.702;7.276;2023-08-01T09:50:10;98009.00;;;22.70
19948;BMP180;10135;50.702;7.276;2023-08-01T09:52:11;98011.00;;;22.70
19948;BMP180;10135;50.702;7.276;2023-08-01T09:54:12;98004.00;;;22.70
19948;BMP180;10135;50.702;7.276;2023-08-01T09:56:15;98008.00;;;22.70
19948;BMP180;10135;50.702;7.276;2023-08-01T09:58:21;98011.00;;;22.80
19948;BMP180;10135;50.702;7.276;2023-08-01T10:00:22;98006.00;;;22.80
19948;BMP180;10135;50.702;7.276;2023-08-01T10:02:26;98005.00;;;22.90
19948;BMP180;10135;50.702;7.276;2023-08-01T10:04:31;98011.00;;;22.90
19948;BMP180;10135;50.702;7.276;2023-08-01T10:06:37;98005.00;;;22.90
19948;BMP180;10135;50.702;7.276;2023-08-01T10:08:40;98009.00;;;23.00
19948;BMP180;10135;50.702;7.276;2023-08-01T10:10:42;98007.00;;;23.00
19948;BMP180;10135;50.702;7.276;2023-08-01T10:12:45;98001.00;;;23.00
19948;BMP180;10135;50.702;7.276;2023-08-01T10:14:49;97998.00;;;23.10
19948;BMP180;10135;50.702;7.276;2023-08-01T10:16:51;98005.00;;;23.10
19948;BMP180;10135;50.702;7.276;2023-08-01T10:18:53;97995.00;;;23.10
19948;BMP180;10135;50.702;7.276;2023-08-01T10:20:55;98005.00;;;23.20
19948;BMP180;10135;50.702;7.276;2023-08-01T10:22:57;98010.00;;;23.20
19948;BMP180;10135;50.702;7.276;2023-08-01T10:24:59;98009.00;;;23.20
19948;BMP180;10135;50.702;7.276;2023-08-01T10:27:19;97999.00;;;23.10
19948;BMP180;10135;50.702;7.276;2023-08-01T10:29:20;97997.00;;;23.20
19948;BMP180;10135;50.702;7.276;2023-08-01T10:31:21;98005.00;;;23.20
19948;BMP180;10135;50.702;7.276;2023-08-01T10:33:33;97999.00;;;23.20
19948;BMP180;10135;50.702;7.276;2023-08-01T10:35:36;98000.00;;;23.30
19948;BMP180;10135;50.702;7.276;2023-08-01T10:37:45;97997.00;;;23.20
19948;BMP180;10135;50.702;7.276;2023-08-01T10:39:58;97997.00;;;23.20
19948;BMP180;10135;50.702;7.276;2023-08-01T10:42:02;97996.00;;;23.30
19948;BMP180;10135;50.702;7.276;2023-08-01T10:44:14;98003.00;;;23.20
19948;BMP180;10135;50.702;7.276;2023-08-01T10:46:15;98003.00;;;23.30
19948;BMP180;10135;50.702;7.276;2023-08-01T10:48:16;98010.00;;;23.30
19948;BMP180;10135;50.702;7.276;2023-08-01T10:50:18;97997.00;;;23.40
19948;BMP180;10135;50.702;7.276;2023-08-01T10:52:24;97999.00;;;23.50
19948;BMP180;10135;50.702;7.276;2023-08-01T10:54:27;97995.00;;;23.50
19948;BMP180;10135;50.702;7.276;2023-08-01T10:56:28;98007.00;;;23.60
19948;BMP180;10135;50.702;7.276;2023-08-01T10:58:31;98010.00;;;23.60
19948;BMP180;10135;50.702;7.276;2023-08-01T11:00:32;98012.00;;;23.70
19948;BMP180;10135;50.702;7.276;2023-08-01T11:02:33;98015.00;;;23.70
19948;BMP180;10135;50.702;7.276;2023-08-01T11:04:33;98017.00;;;23.70
19948;BMP180;10135;50.702;7.276;2023-08-01T11:06:47;98026.00;;;23.70
19948;BMP180;10135;50.702;7.276;2023-08-01T11:08:48;98024.00;;;23.70
19948;BMP180;10135;50.702;7.276;2023-08-01T11:10:49;98027.00;;;23.80
19948;BMP180;10135;50.702;7.276;2023-08-01T11:12:50;98024.00;;;23.80
19948;BMP180;10135;50.702;7.276;2023-08-01T11:14:51;98024.00;;;23.80
19948;BMP180;10135;50.702;7.276;2023-08-01T11:16:55;98030.00;;;23.90
19948;BMP180;10135;50.702;7.276;2023-08-01T11:18:56;98021.00;;;23.90
19948;BMP180;10135;50.702;7.276;2023-08-01T11:20:57;98021.00;;;24.00
19948;BMP180;10135;50.702;7.276;2023-08-01T11:23:00;98031.00;;;24.10
19948;BMP180;10135;50.702;7.276;2023-08-01T11:25:02;98022.00;;;24.10
19948;BMP180;10135;50.702;7.276;2023-08-01T11:27:03;98023.00;;;24.20
19948;BMP180;10135;50.702;7.276;2023-08-01T11:29:04;98017.00;;;24.20
19948;BMP180;10135;50.702;7.276;2023-08-01T11:31:12;98027.00;;;24.30
19948;BMP180;10135;50.702;7.276;2023-08-01T11:33:15;98018.00;;;24.40
19948;BMP180;10135;50.702;7.276;2023-08-01T11:35:19;98023.00;;;24.50
19948;BMP180;10135;50.702;7.276;2023-08-01T11:37:20;98016.00;;;24.50
19948;BMP180;10135;50.702;7.276;2023-08-01T11:39:21;98027.00;;;24.60
19948;BMP180;10135;50.702;7.276;2023-08-01T11:41:24;98016.00;;;24.70
19948;BMP180;10135;50.702;7.276;2023-08-01T11:43:25;98027.00;;;24.70
19948;BMP180;10135;50.702;7.276;2023-08-01T11:45:26;98018.00;;;24.80
19948;BMP180;10135;50.702;7.276;2023-08-01T11:47:27;98022.00;;;24.80
19948;BMP180;10135;50.702;7.276;2023-08-01T11:49:27;98024.00;;;24.80
19948;BMP180;10135;50.702;7.276;2023-08-01T11:51:29;98015.00;;;24.80
19948;BMP180;10135;50.702;7.276;2023-08-01T11:53:30;98015.00;;;24.80
19948;BMP180;10135;50.702;7.276;2023-08-01T11:55:35;98021.00;;;24.80
19948;BMP180;10135;50.702;7.276;2023-08-01T11:57:36;98030.00;;;24.80
19948;BMP180;10135;50.702;7.276;2023-08-01T11:59:47;98024.00;;;24.70
19948;BMP180;10135;50.702;7.276;2023-08-01T12:01:49;98038.00;;;24.70
19948;BMP180;10135;50.702;7.276;2023-08-01T12:03:54;98046.00;;;24.60
19948;BMP180;10135;50.702;7.276;2023-08-01T12:06:05;98037.00;;;24.60
19948;BMP180;10135;50.702;7.276;2023-08-01T12:08:13;98042.00;;;24.60
19948;BMP180;10135;50.702;7.276;2023-08-01T12:10:14;98054.00;;;24.50
19948;BMP180;10135;50.702;7.276;2023-08-01T12:12:15;98053.00;;;24.40
19948;BMP180;10135;50.702;7.276;2023-08-01T12:14:16;98060.00;;;24.40
19948;BMP180;10135;50.702;7.276;2023-08-01T12:16:17;98070.00;;;24.40
19948;BMP180;10135;50.702;7.276;2023-08-01T12:18:23;98064.00;;;24.30
19948;BMP180;10135;50.702;7.276;2023-08-01T12:20:24;98062.00;;;24.30
19948;BMP180;10135;50.702;7.276;2023-08-01T12:22:25;98064.00;;;24.30
19948;BMP180;10135;50.702;7.276;2023-08-01T12:24:25;98064.00;;;24.30
19948;BMP180;10135;50.702;7.276;2023-08-01T12:26:26;98067.00;;;24.40
19948;BMP180;10135;50.702;7.276;2023-08-01T12:28:27;98059.00;;;24.40
19948;BMP180;10135;50.702;7.276;2023-08-01T12:30:27;98059.00;;;24.50
19948;BMP180;10135;50.702;7.276;2023-08-01T12:32:28;98049.00;;;24.50
19948;BMP180;10135;50.702;7.276;2023-08-01T12:34:29;98047.00;;;24.60
19948;BMP180;10135;50.702;7.276;2023-08-01T12:36:29;98050.00;;;24.70
19948;BMP180;10135;50.702;7.276;2023-08-01T12:38:30;98053.00;;;24.70
19948;BMP180;10135;50.702;7.276;2023-08-01T12:40:31;98057.00;;;24.80
19948;BMP180;10135;50.702;7.276;2023-08-01T12:42:31;98065.00;;;24.80
19948;BMP180;10135;50.702;7.276;2023-08-01T12:44:32;98062.00;;;24.80
19948;BMP180;10135;50.702;7.276;2023-08-01T12:46:32;98055.00;;;24.80
19948;BMP180;10135;50.702;7.276;2023-08-01T12:48:33;98062.00;;;24.80
19948;BMP180;10135;50.702;7.276;2023-08-01T12:50:34;98061.00;;;24.80
19948;BMP180;10135;50.702;7.276;2023-08-01T12:52:34;98066.00;;;24.80
19948;BMP180;10135;50.702;7.276;2023-08-01T12:54:35;98069.00;;;24.70
19948;BMP180;10135;50.702;7.276;2023-08-01T12:56:37;98059.00;;;24.60
19948;BMP180;10135;50.702;7.276;2023-08-01T12:58:37;98073.00;;;24.60
19948;BMP180;10135;50.702;7.276;2023-08-01T13:00:40;98060.00;;;24.50
19948;BMP180;10135;50.702;7.276;2023-08-01T13:02:41;98061.00;;;24.50
19948;BMP180;10135;50.702;7.276;2023-08-01T13:04:42;98066.00;;;24.50
19948;BMP180;10135;50.702;7.276;2023-08-01T13:06:44;98075.00;;;24.40
19948;BMP180;10135;50.702;7.276;2023-08-01T13:08:45;98066.00;;;24.40
19948;BMP180;10135;50.702;7.276;2023-08-01T13:10:45;98070.00;;;24.40
19948;BMP180;10135;50.702;7.276;2023-08-01T13:12:47;98070.00;;;24.40
19948;BMP180;10135;50.702;7.276;2023-08-01T13:14:47;98072.00;;;24.40
19948;BMP180;10135;50.702;7.276;2023-08-01T13:16:48;98077.00;;;24.40
19948;BMP180;10135;50.702;7.276;2023-08-01T13:18:48;98082.00;;;24.30
19948;BMP180;10135;50.702;7.276;2023-08-01T13:20:49;98081.00;;;24.40
19948;BMP180;10135;50.702;7.276;2023-08-01T13:22:51;98070.00;;;24.40
19948;BMP180;10135;50.702;7.276;2023-08-01T13:24:52;98076.00;;;24.40
19948;BMP180;10135;50.702;7.276;2023-08-01T13:26:52;98079.00;;;24.40
19948;BMP180;10135;50.702;7.276;2023-08-01T13:28:53;98082.00;;;24.40
19948;BMP180;10135;50.702;7.276;2023-08-01T13:30:53;98079.00;;;24.40
19948;BMP180;10135;50.702;7.276;2023-08-01T13:32:54;98080.00;;;24.40
19948;BMP180;10135;50.702;7.276;2023-08-01T13:34:55;98086.00;;;24.40
19948;BMP180;10135;50.702;7.276;2023-08-01T13:36:55;98087.00;;;24.40
19948;BMP180;10135;50.702;7.276;2023-08-01T13:38:57;98085.00;;;24.40
19948;BMP180;10135;50.702;7.276;2023-08-01T13:41:00;98082.00;;;24.40
19948;BMP180;10135;50.702;7.276;2023-08-01T13:43:01;98082.00;;;24.50
19948;BMP180;10135;50.702;7.276;2023-08-01T13:45:02;98080.00;;;24.50
19948;BMP180;10135;50.702;7.276;2023-08-01T13:47:03;98085.00;;;24.50
19948;BMP180;10135;50.702;7.276;2023-08-01T13:49:04;98086.00;;;24.50
19948;BMP180;10135;50.702;7.276;2023-08-01T13:51:05;98081.00;;;24.60
19948;BMP180;10135;50.702;7.276;2023-08-01T13:53:06;98087.00;;;24.60
19948;BMP180;10135;50.702;7.276;2023-08-01T13:55:10;98078.00;;;24.60
19948;BMP180;10135;50.702;7.276;2023-08-01T13:57:11;98088.00;;;24.70
19948;BMP180;10135;50.702;7.276;2023-08-01T13:59:12;98083.00;;;24.80
19948;BMP180;10135;50.702;7.276;2023-08-01T14:01:12;98084.00;;;24.80
19948;BMP180;10135;50.702;7.276;2023-08-01T14:03:13;98094.00;;;24.80
19948;BMP180;10135;50.702;7.276;2023-08-01T14:05:14;98092.00;;;24.80
19948;BMP180;10135;50.702;7.276;2023-08-01T14:07:15;98087.00;;;24.80
19948;BMP180;10135;50.702;7.276;2023-08-01T14:09:16;98087.00;;;24.80
19948;BMP180;10135;50.702;7.276;2023-08-01T14:11:17;98097.00;;;24.80
19948;BMP180;10135;50.702;7.276;2023-08-01T14:13:18;98094.00;;;24.80
19948;BMP180;10135;50.702;7.276;2023-08-01T14:15:19;98101.00;;;24.80
19948;BMP180;10135;50.702;7.276;2023-08-01T14:17:19;98096.00;;;24.80
19948;BMP180;10135;50.702;7.276;2023-08-01T14:19:20;98092.00;;;24.80
19948;BMP180;10135;50.702;7.276;2023-08-01T14:21:21;98103.00;;;24.80
19948;BMP180;10135;50.702;7.276;2023-08-01T14:23:22;98087.00;;;24.80
19948;BMP180;10135;50.702;7.276;2023-08-01T14:25:23;98099.00;;;24.80
19948;BMP180;10135;50.702;7.276;2023-08-01T14:27:23;98099.00;;;24.80
19948;BMP180;10135;50.702;7.276;2023-08-01T14:29:24;98100.00;;;24.80
19948;BMP180;10135;50.702;7.276;2023-08-01T14:31:26;98106.00;;;24.80
19948;BMP180;10135;50.702;7.276;2023-08-01T14:33:26;98112.00;;;24.80
19948;BMP180;10135;50.702;7.276;2023-08-01T14:35:28;98117.00;;;24.70
19948;BMP180;10135;50.702;7.276;2023-08-01T14:37:29;98113.00;;;24.70
19948;BMP180;10135;50.702;7.276;2023-08-01T14:39:30;98114.00;;;24.60
19948;BMP180;10135;50.702;7.276;2023-08-01T14:41:31;98119.00;;;24.60
19948;BMP180;10135;50.702;7.276;2023-08-01T14:43:31;98117.00;;;24.60
19948;BMP180;10135;50.702;7.276;2023-08-01T14:45:32;98116.00;;;24.50
19948;BMP180;10135;50.702;7.276;2023-08-01T14:47:34;98114.00;;;24.50
19948;BMP180;10135;50.702;7.276;2023-08-01T14:49:35;98115.00;;;24.50
19948;BMP180;10135;50.702;7.276;2023-08-01T14:51:35;98121.00;;;24.50
19948;BMP180;10135;50.702;7.276;2023-08-01T14:53:36;98141.00;;;24.40
19948;BMP180;10135;50.702;7.276;2023-08-01T14:55:36;98134.00;;;24.40
19948;BMP180;10135;50.702;7.276;2023-08-01T14:57:37;98139.00;;;24.30
19948;BMP180;10135;50.702;7.276;2023-08-01T14:59:38;98137.00;;;24.30
19948;BMP180;10135;50.702;7.276;2023-08-01T15:01:39;98131.00;;;24.20
19948;BMP180;10135;50.702;7.276;2023-08-01T15:03:40;98149.00;;;24.20
19948;BMP180;10135;50.702;7.276;2023-08-01T15:05:40;98149.00;;;24.10
19948;BMP180;10135;50.702;7.276;2023-08-01T15:07:41;98150.00;;;24.00
19948;BMP180;10135;50.702;7.276;2023-08-01T15:09:42;98148.00;;;24.00
19948;BMP180;10135;50.702;7.276;2023-08-01T15:11:43;98158.00;;;23.90
19948;BMP180;10135;50.702;7.276;2023-08-01T15:13:44;98149.00;;;23.90
19948;BMP180;10135;50.702;7.276;2023-08-01T15:15:45;98144.00;;;23.90
19948;BMP180;10135;50.702;7.276;2023-08-01T15:17:45;98147.00;;;23.90
19948;BMP180;10135;50.702;7.276;2023-08-01T15:19:46;98136.00;;;23.90
19948;BMP180;10135;50.702;7.276;2023-08-01T15:21:47;98141.00;;;24.00
19948;BMP180;10135;50.702;7.276;2023-08-01T15:23:48;98133.00;;;24.00
19948;BMP180;10135;50.702;7.276;2023-08-01T15:25:58;98133.00;;;24.00
19948;BMP180;10135;50.702;7.276;2023-08-01T15:27:59;98141.00;;;24.10
19948;BMP180;10135;50.702;7.276;2023-08-01T15:29:59;98139.00;;;24.10
19948;BMP180;10135;50.702;7.276;2023-08-01T15:32:00;98141.00;;;24.10
19948;BMP180;10135;50.702;7.276;2023-08-01T15:34:01;98141.00;;;24.10
19948;BMP180;10135;50.702;7.276;2023-08-01T15:36:06;98144.00;;;24.10
19948;BMP180;10135;50.702;7.276;2023-08-01T15:38:06;98145.00;;;24.10
19948;BMP180;10135;50.702;7.276;2023-08-01T15:40:08;98151.00;;;24.10
19948;BMP180;10135;50.702;7.276;2023-08-01T15:42:08;98151.00;;;24.10
19948;BMP180;10135;50.702;7.276;2023-08-01T15:44:09;98148.00;;;24.00
19948;BMP180;10135;50.702;7.276;2023-08-01T15:46:11;98151.00;;;24.00
19948;BMP180;10135;50.702;7.276;2023-08-01T15:48:11;98155.00;;;24.00
19948;BMP180;10135;50.702;7.276;2023-08-01T15:50:12;98161.00;;;24.00
19948;BMP180;10135;50.702;7.276;2023-08-01T15:52:13;98175.00;;;23.90
19948;BMP180;10135;50.702;7.276;2023-08-01T15:54:13;98184.00;;;23.90
19948;BMP180;10135;50.702;7.276;2023-08-01T15:56:14;98195.00;;;23.80
19948;BMP180;10135;50.702;7.276;2023-08-01T15:58:15;98194.00;;;23.70
19948;BMP180;10135;50.702;7.276;2023-08-01T16:00:16;98198.00;;;23.60
19948;BMP180;10135;50.702;7.276;2023-08-01T16:02:16;98198.00;;;23.50
19948;BMP180;10135;50.702;7.276;2023-08-01T16:04:17;98196.00;;;23.40
19948;BMP180;10135;50.702;7.276;2023-08-01T16:06:18;98206.00;;;23.30
19948;BMP180;10135;50.702;7.276;2023-08-01T16:08:19;98209.00;;;23.20
19948;BMP180;10135;50.702;7.276;2023-08-01T16:10:20;98210.00;;;23.10
19948;BMP180;10135;50.702;7.276;2023-08-01T16:12:21;98216.00;;;23.10
19948;BMP180;10135;50.702;7.276;2023-08-01T16:14:21;98224.00;;;23.00
19948;BMP180;10135;50.702;7.276;2023-08-01T16:16:22;98227.00;;;22.90
19948;BMP180;10135;50.702;7.276;2023-08-01T16:18:23;98236.00;;;22.80
19948;BMP180;10135;50.702;7.276;2023-08-01T16:20:24;98239.00;;;22.70
19948;BMP180;10135;50.702;7.276;2023-08-01T16:22:24;98235.00;;;22.60
19948;BMP180;10135;50.702;7.276;2023-08-01T16:24:25;98226.00;;;22.60
19948;BMP180;10135;50.702;7.276;2023-08-01T16:26:26;98225.00;;;22.50
19948;BMP180;10135;50.702;7.276;2023-08-01T16:28:27;98216.00;;;22.40
19948;BMP180;10135;50.702;7.276;2023-08-01T16:30:28;98205.00;;;22.40
19948;BMP180;10135;50.702;7.276;2023-08-01T16:32:29;98215.00;;;22.30
19948;BMP180;10135;50.702;7.276;2023-08-01T16:34:30;98209.00;;;22.30
19948;BMP180;10135;50.702;7.276;2023-08-01T16:36:31;98211.00;;;22.20
19948;BMP180;10135;50.702;7.276;2023-08-01T16:38:31;98211.00;;;22.20
19948;BMP180;10135;50.702;7.276;2023-08-01T16:40:32;98211.00;;;22.20
19948;BMP180;10135;50.702;7.276;2023-08-01T16:42:33;98214.00;;;22.10